createdAt,value
2023-02-19T00:00:35.003Z,3.25
2023-02-19T00:03:05.539Z,3.40
2023-02-19T00:05:36.780Z,3.90
2023-02-19T00:08:06.366Z,3.33
2023-02-19T00:10:35.970Z,3.63
2023-02-19T00:13:05.351Z,3.38
2023-02-19T00:15:35.112Z,3.60
2023-02-19T00:18:06.114Z,3.70
2023-02-19T00:20:35.295Z,4.10
2023-02-19T00:23:04.494Z,3.63
2023-02-19T00:25:33.612Z,3.67
2023-02-19T00:28:02.803Z,3.03
2023-02-19T00:30:31.948Z,2.85
2023-02-19T00:33:01.213Z,3.20
2023-02-19T00:35:34.830Z,3.47
2023-02-19T00:38:05.163Z,4.15
2023-02-19T00:40:34.346Z,3.67
2023-02-19T00:43:03.505Z,3.70
2023-02-19T00:45:34.597Z,3.15
2023-02-19T00:48:03.694Z,3.22
2023-02-19T00:50:34.126Z,3.60
2023-02-19T00:53:03.603Z,3.55
2023-02-19T00:55:33.003Z,3.67
2023-02-19T00:58:02.106Z,3.10
2023-02-19T01:00:31.334Z,4.32
2023-02-19T01:03:00.511Z,3.60
2023-02-19T01:05:29.618Z,3.33
2023-02-19T01:08:00.245Z,3.95
2023-02-19T01:10:29.333Z,4.10
2023-02-19T01:12:58.667Z,3.65
2023-02-19T01:15:27.909Z,3.67
2023-02-19T01:17:57.087Z,4.20
2023-02-19T01:20:26.772Z,3.70
2023-02-19T01:22:55.879Z,3.83
2023-02-19T01:25:26.516Z,3.58
2023-02-19T01:27:55.505Z,3.00
2023-02-19T01:30:25.095Z,4.15
2023-02-19T01:32:54.220Z,3.20
2023-02-19T01:35:23.303Z,3.58
2023-02-19T01:37:52.807Z,4.72
2023-02-19T01:40:22.268Z,4.03
2023-02-19T01:42:52.677Z,4.10
2023-02-19T01:45:28.798Z,4.35
2023-02-19T01:48:07.398Z,3.80
2023-02-19T01:50:40.697Z,3.88
2023-02-19T01:53:13.392Z,3.70
2023-02-19T01:55:44.127Z,3.20
2023-02-19T01:58:16.000Z,2.97
2023-02-19T02:00:45.661Z,3.38
2023-02-19T02:03:16.313Z,3.35
2023-02-19T02:05:55.960Z,4.53
2023-02-19T02:08:43.626Z,3.60
2023-02-19T02:11:13.620Z,3.30
2023-02-19T02:13:44.144Z,3.05
2023-02-19T02:16:23.602Z,3.50
2023-02-19T02:19:15.436Z,3.53
2023-02-19T02:21:58.923Z,3.33
2023-02-19T02:25:14.299Z,3.80
2023-02-19T02:27:53.099Z,3.00
2023-02-19T02:30:34.522Z,3.30
2023-02-19T02:33:13.831Z,3.20
2023-02-19T02:35:48.816Z,3.75
2023-02-19T02:38:22.102Z,3.63
2023-02-19T02:40:52.798Z,4.10
2023-02-19T02:43:22.247Z,4.32
2023-02-19T02:45:52.915Z,5.53
2023-02-19T02:48:36.009Z,4.68
2023-02-19T02:51:14.119Z,5.22
2023-02-19T02:54:12.532Z,5.13
2023-02-19T02:56:44.211Z,4.60
2023-02-19T02:59:16.675Z,4.57
2023-02-19T03:02:12.375Z,4.40
2023-02-19T03:05:09.810Z,3.63
2023-02-19T03:07:44.446Z,3.25
2023-02-19T03:10:18.436Z,3.55
2023-02-19T03:13:07.072Z,3.55
2023-02-19T03:16:15.866Z,4.50
2023-02-19T03:19:08.555Z,3.40
2023-02-19T03:21:39.941Z,3.60
2023-02-19T03:24:31.318Z,4.15
2023-02-19T03:27:03.881Z,3.63
2023-02-19T03:29:41.490Z,4.18
2023-02-19T03:32:16.033Z,4.82
2023-02-19T03:34:53.887Z,3.70
2023-02-19T03:37:29.700Z,4.20
2023-02-19T03:40:01.433Z,3.60
2023-02-19T03:42:41.488Z,4.50
2023-02-19T03:45:26.109Z,3.58
2023-02-19T03:48:05.251Z,4.32
2023-02-19T03:50:44.674Z,4.07
2023-02-19T03:53:19.493Z,4.10
2023-02-19T03:56:01.496Z,4.45
2023-02-19T03:58:37.555Z,3.70
2023-02-19T04:01:11.917Z,3.58
2023-02-19T04:03:46.861Z,4.65
2023-02-19T04:06:22.143Z,4.90
2023-02-19T04:08:55.813Z,4.30
2023-02-19T04:11:27.564Z,4.88
2023-02-19T04:14:06.690Z,4.20
2023-02-19T04:16:40.900Z,3.97
2023-02-19T04:19:13.688Z,4.10
2023-02-19T04:21:46.687Z,3.75
2023-02-19T04:24:23.861Z,3.78
2023-02-19T04:26:53.935Z,4.25
2023-02-19T04:29:23.603Z,4.38
2023-02-19T04:31:53.120Z,4.10
2023-02-19T04:34:22.157Z,4.70
2023-02-19T04:36:52.791Z,4.18
2023-02-19T04:39:22.010Z,4.53
2023-02-19T04:41:51.339Z,4.05
2023-02-19T04:44:20.614Z,4.35
2023-02-19T04:46:50.766Z,4.20
2023-02-19T04:49:20.125Z,4.57
2023-02-19T04:51:49.146Z,3.50
2023-02-19T04:54:19.767Z,3.80
2023-02-19T04:56:50.864Z,3.45
2023-02-19T04:59:20.222Z,3.78
2023-02-19T05:01:49.474Z,3.13
2023-02-19T05:04:19.028Z,4.13
2023-02-19T05:06:48.615Z,3.90
2023-02-19T05:09:19.537Z,4.00
2023-02-19T05:11:48.725Z,3.22
2023-02-19T05:14:18.227Z,3.35
2023-02-19T05:16:47.362Z,3.70
2023-02-19T05:19:16.850Z,2.83
2023-02-19T05:21:46.039Z,4.50
2023-02-19T05:24:15.310Z,3.20
2023-02-19T05:26:46.074Z,4.25
2023-02-19T05:29:15.771Z,4.60
2023-02-19T05:31:45.045Z,4.20
2023-02-19T05:34:14.231Z,3.95
2023-02-19T05:36:43.771Z,3.85
2023-02-19T05:39:13.623Z,3.58
2023-02-19T05:41:43.162Z,4.15
2023-02-19T05:44:13.909Z,3.78
2023-02-19T05:49:15.824Z,3.70
2023-02-19T05:51:46.222Z,3.50
2023-02-19T05:54:15.364Z,4.65
2023-02-19T05:56:44.509Z,4.10
2023-02-19T05:59:19.507Z,3.90
2023-02-19T06:01:49.767Z,3.85
2023-02-19T06:04:20.569Z,3.90
2023-02-19T06:06:50.830Z,3.78
2023-02-19T06:09:19.866Z,3.70
2023-02-19T06:11:51.623Z,3.70
2023-02-19T06:14:22.776Z,3.22
2023-02-19T06:16:52.277Z,3.55
2023-02-19T06:19:22.228Z,3.42
2023-02-19T06:21:51.929Z,3.50
2023-02-19T06:24:21.577Z,3.67
2023-02-19T06:26:51.049Z,3.63
2023-02-19T06:29:20.228Z,3.53
2023-02-19T06:31:51.204Z,3.65
2023-02-19T06:34:20.630Z,3.63
2023-02-19T06:36:50.880Z,3.30
2023-02-19T06:39:20.117Z,2.95
2023-02-19T06:41:49.821Z,3.47
2023-02-19T06:44:19.435Z,3.80
2023-02-19T06:46:48.950Z,3.22
2023-02-19T06:49:19.725Z,3.58
2023-02-19T06:51:49.699Z,3.25
2023-02-19T06:54:19.157Z,3.50
2023-02-19T06:56:48.906Z,3.25
2023-02-19T06:59:18.819Z,2.90
2023-02-19T07:01:51.181Z,3.92
2023-02-19T07:04:21.676Z,3.88
2023-02-19T07:06:53.070Z,3.33
2023-02-19T07:09:23.649Z,3.25
2023-02-19T07:11:52.976Z,3.88
2023-02-19T07:14:22.724Z,3.70
2023-02-19T07:16:52.738Z,3.35
2023-02-19T07:19:30.983Z,3.65
2023-02-19T07:22:00.294Z,3.28
2023-02-19T07:24:34.098Z,4.20
2023-02-19T07:27:04.891Z,3.50
2023-02-19T07:29:34.482Z,3.28
2023-02-19T07:32:04.256Z,3.22
2023-02-19T07:34:35.090Z,2.58
2023-02-19T07:37:05.203Z,3.35
2023-02-19T07:39:34.781Z,3.20
2023-02-19T07:42:04.292Z,2.88
2023-02-19T07:44:35.219Z,3.55
2023-02-19T07:47:04.557Z,3.10
2023-02-19T07:49:36.331Z,3.22
2023-02-19T07:52:06.257Z,3.22
2023-02-19T07:54:35.824Z,3.13
2023-02-19T07:57:05.502Z,2.88
2023-02-19T07:59:36.288Z,3.47
2023-02-19T08:02:23.011Z,4.15
2023-02-19T08:04:53.842Z,3.08
2023-02-19T08:07:23.250Z,3.10
2023-02-19T08:10:13.135Z,3.50
2023-02-19T08:13:00.281Z,2.80
2023-02-19T08:15:30.443Z,3.17
2023-02-19T08:17:59.742Z,3.25
2023-02-19T08:20:31.585Z,3.47
2023-02-19T08:23:01.301Z,2.90
2023-02-19T08:25:31.327Z,3.60
2023-02-19T08:28:01.453Z,4.07
2023-02-19T08:30:32.367Z,3.65
2023-02-19T08:33:02.716Z,2.75
2023-02-19T08:35:36.612Z,2.50
2023-02-19T08:38:07.387Z,2.47
2023-02-19T08:40:38.829Z,2.40
2023-02-19T08:43:09.483Z,3.10
2023-02-19T08:45:39.687Z,3.15
2023-02-19T08:48:11.310Z,3.22
2023-02-19T08:50:42.306Z,2.95
2023-02-19T08:53:11.818Z,3.00
2023-02-19T08:55:42.201Z,3.30
2023-02-19T08:58:44.209Z,3.58
2023-02-19T09:01:16.792Z,3.15
2023-02-19T09:03:47.961Z,2.80
2023-02-19T09:06:22.271Z,2.33
2023-02-19T09:08:52.114Z,2.85
2023-02-19T09:11:21.938Z,2.45
2023-02-19T09:13:51.166Z,2.80
2023-02-19T09:16:20.775Z,3.25
2023-02-19T09:18:50.621Z,3.80
2023-02-19T09:21:22.142Z,3.05
2023-02-19T09:23:51.737Z,2.80
2023-02-19T09:26:21.289Z,3.90
2023-02-19T09:28:50.779Z,2.63
2023-02-19T09:31:20.492Z,3.65
2023-02-19T09:33:50.228Z,3.10
2023-02-19T09:36:21.273Z,3.05
2023-02-19T09:38:50.536Z,3.50
2023-02-19T09:41:26.711Z,2.40
2023-02-19T09:43:56.015Z,2.60
2023-02-19T09:46:31.978Z,3.15
2023-02-19T09:49:09.936Z,2.40
2023-02-19T09:51:44.412Z,2.72
2023-02-19T09:54:24.723Z,1.70
2023-02-19T09:56:56.315Z,3.05
2023-02-19T09:59:30.067Z,3.53
2023-02-19T10:02:04.389Z,2.92
2023-02-19T10:04:34.216Z,2.85
2023-02-19T10:07:08.525Z,3.05
2023-02-19T10:09:38.984Z,3.00
2023-02-19T10:12:16.800Z,2.80
2023-02-19T10:14:49.936Z,2.92
2023-02-19T10:17:24.484Z,2.80
2023-02-19T10:19:55.508Z,2.95
2023-02-19T10:22:29.155Z,2.53
2023-02-19T10:24:59.385Z,2.65
2023-02-19T10:27:31.587Z,3.15
2023-02-19T10:30:02.945Z,2.63
2023-02-19T10:32:35.801Z,3.00
2023-02-19T10:35:14.334Z,2.78
2023-02-19T10:37:46.878Z,3.22
2023-02-19T10:40:19.518Z,2.45
2023-02-19T10:42:51.135Z,3.50
2023-02-19T10:45:24.001Z,2.83
2023-02-19T10:47:54.086Z,2.67
2023-02-19T10:50:29.284Z,2.67
2023-02-19T10:53:02.017Z,2.70
2023-02-19T10:55:36.052Z,2.88
2023-02-19T10:58:25.928Z,2.90
2023-02-19T11:01:14.070Z,3.38
2023-02-19T11:03:43.933Z,2.78
2023-02-19T11:06:15.625Z,2.50
2023-02-19T11:08:54.705Z,2.85
2023-02-19T11:11:34.460Z,3.15
2023-02-19T11:14:07.360Z,3.13
2023-02-19T11:16:44.196Z,2.83
2023-02-19T11:19:38.138Z,3.53
2023-02-19T11:22:21.305Z,2.58
2023-02-19T11:24:57.269Z,2.83
2023-02-19T11:27:28.171Z,2.40
2023-02-19T11:29:58.332Z,2.63
2023-02-19T11:32:30.752Z,2.50
2023-02-19T11:35:17.819Z,2.55
2023-02-19T11:37:58.837Z,2.65
2023-02-19T11:40:46.845Z,3.58
2023-02-19T11:43:32.062Z,2.10
2023-02-19T11:46:09.634Z,3.15
2023-02-19T11:48:55.655Z,2.97
2023-02-19T11:51:37.265Z,2.45
2023-02-19T11:54:19.572Z,3.10
2023-02-19T11:56:57.687Z,2.75
2023-02-19T11:59:34.187Z,2.80
2023-02-19T12:03:12.325Z,3.05
2023-02-19T12:05:58.813Z,2.72
2023-02-19T12:09:08.087Z,2.47
2023-02-19T12:12:07.139Z,2.90
2023-02-19T12:14:55.980Z,2.47
2023-02-19T12:17:46.480Z,3.08
2023-02-19T12:20:24.162Z,3.75
2023-02-19T12:23:03.862Z,3.08
2023-02-19T12:25:46.566Z,2.90
2023-02-19T12:28:36.172Z,3.00
2023-02-19T12:31:47.282Z,2.83
2023-02-19T12:34:34.973Z,2.92
2023-02-19T12:37:17.330Z,2.65
2023-02-19T12:39:57.514Z,2.45
2023-02-19T12:42:50.795Z,3.17
2023-02-19T12:45:25.382Z,2.70
2023-02-19T12:48:02.848Z,3.08
2023-02-19T12:50:36.767Z,2.88
2023-02-19T12:55:41.922Z,2.65
2023-02-19T12:58:18.580Z,2.28
2023-02-19T13:00:56.684Z,2.70
2023-02-19T13:03:33.254Z,2.38
2023-02-19T13:06:09.458Z,3.45
2023-02-19T13:08:57.730Z,2.53
2023-02-19T13:11:39.957Z,3.13
2023-02-19T13:14:18.619Z,2.90
2023-02-19T13:16:53.919Z,2.40
2023-02-19T13:19:23.242Z,2.60
2023-02-19T13:22:20.830Z,2.60
2023-02-19T13:24:52.216Z,3.08
2023-02-19T13:27:48.763Z,3.35
2023-02-19T13:30:34.079Z,2.95
2023-02-19T13:33:23.919Z,2.95
2023-02-19T13:36:06.291Z,3.00
2023-02-19T13:38:41.957Z,2.90
2023-02-19T13:41:21.527Z,2.78
2023-02-19T13:43:57.974Z,2.78
2023-02-19T13:46:36.607Z,3.15
2023-02-19T13:49:42.780Z,3.03
2023-02-19T13:52:43.730Z,2.85
2023-02-19T13:55:54.917Z,3.50
2023-02-19T13:58:39.108Z,2.13
2023-02-19T14:01:10.481Z,3.25
2023-02-19T14:03:52.390Z,3.63
2023-02-19T14:06:23.405Z,2.33
2023-02-19T14:08:56.996Z,3.20
2023-02-19T14:12:19.165Z,2.85
2023-02-19T14:14:50.511Z,2.47
2023-02-19T14:17:38.592Z,2.42
2023-02-19T14:20:43.149Z,2.95
2023-02-19T14:23:25.495Z,3.10
2023-02-19T14:25:58.417Z,2.50
2023-02-19T14:28:33.650Z,2.77
2023-02-19T14:31:11.869Z,2.38
2023-02-19T14:33:47.433Z,2.85
2023-02-19T14:36:24.723Z,3.35
2023-02-19T14:38:58.108Z,3.15
2023-02-19T14:41:31.809Z,2.70
2023-02-19T14:46:36.097Z,2.90
2023-02-19T14:49:13.574Z,3.42
2023-02-19T14:51:47.661Z,2.75
2023-02-19T14:54:22.408Z,2.50
2023-02-19T14:56:55.556Z,2.95
2023-02-19T14:59:27.924Z,2.40
2023-02-19T15:02:02.790Z,3.00
2023-02-19T15:04:38.033Z,2.53
2023-02-19T15:07:09.901Z,2.55
2023-02-19T15:09:47.284Z,2.70
2023-02-19T15:12:19.905Z,2.25
2023-02-19T15:14:56.644Z,3.00
2023-02-19T15:17:30.722Z,2.65
2023-02-19T15:20:05.262Z,3.17
2023-02-19T15:22:35.662Z,2.30
2023-02-19T15:25:07.607Z,2.38
2023-02-19T15:27:37.843Z,2.85
2023-02-19T15:30:21.661Z,3.25
2023-02-19T15:32:55.215Z,3.45
2023-02-19T15:35:26.535Z,2.15
2023-02-19T15:37:58.085Z,2.80
2023-02-19T15:40:32.743Z,3.45
2023-02-19T15:43:02.291Z,3.25
2023-02-19T15:45:40.478Z,2.70
2023-02-19T15:48:15.829Z,2.67
2023-02-19T15:50:50.035Z,2.78
2023-02-19T15:56:01.633Z,2.80
2023-02-19T15:58:36.823Z,2.55
2023-02-19T16:01:13.655Z,2.63
2023-02-19T16:03:45.938Z,2.85
2023-02-19T16:06:19.132Z,2.88
2023-02-19T16:09:03.484Z,3.72
2023-02-19T16:11:39.727Z,2.53
2023-02-19T16:14:30.548Z,2.95
2023-02-19T16:17:18.594Z,3.83
2023-02-19T16:19:57.675Z,3.20
2023-02-19T16:22:30.469Z,2.83
2023-02-19T16:25:03.365Z,2.97
2023-02-19T16:27:40.268Z,3.45
2023-02-19T16:30:29.840Z,5.80
2023-02-19T16:33:33.148Z,3.50
2023-02-19T16:36:20.821Z,2.88
2023-02-19T16:39:21.575Z,3.00
2023-02-19T16:42:18.416Z,3.22
2023-02-19T16:44:51.591Z,3.78
2023-02-19T16:47:33.570Z,3.70
2023-02-19T16:50:13.684Z,3.72
2023-02-19T16:53:01.301Z,3.25
2023-02-19T16:55:34.875Z,2.97
2023-02-19T16:58:04.900Z,3.13
2023-02-19T17:00:38.917Z,3.35
2023-02-19T17:03:12.448Z,3.78
2023-02-19T17:05:43.578Z,3.40
2023-02-19T17:08:34.949Z,3.20
2023-02-19T17:11:07.411Z,3.47
2023-02-19T17:13:37.630Z,3.80
2023-02-19T17:16:09.055Z,3.47
2023-02-19T17:18:39.699Z,4.32
2023-02-19T17:21:17.107Z,3.63
2023-02-19T17:23:48.328Z,3.85
2023-02-19T17:26:20.166Z,3.25
2023-02-19T17:28:51.916Z,2.72
2023-02-19T17:31:23.672Z,3.15
2023-02-19T17:36:26.769Z,3.60
2023-02-19T17:38:57.136Z,2.90
2023-02-19T17:41:27.143Z,3.15
2023-02-19T17:44:02.179Z,3.30
2023-02-19T17:46:35.842Z,3.50
2023-02-19T17:49:05.642Z,2.85
2023-02-19T17:51:35.396Z,3.35
2023-02-19T17:54:04.927Z,4.35
2023-02-19T17:56:36.375Z,2.85
2023-02-19T17:59:06.004Z,3.25
2023-02-19T18:01:38.080Z,3.35
2023-02-19T18:04:07.593Z,3.05
2023-02-19T18:06:36.956Z,3.35
2023-02-19T18:09:06.224Z,3.35
2023-02-19T18:11:37.328Z,2.92
2023-02-19T18:14:09.410Z,3.28
2023-02-19T18:16:48.175Z,5.13
2023-02-19T18:19:33.538Z,3.80
2023-02-19T18:22:05.245Z,3.88
2023-02-19T18:24:36.166Z,3.67
2023-02-19T18:27:06.115Z,4.22
2023-02-19T18:29:36.216Z,3.28
2023-02-19T18:32:07.226Z,3.33
2023-02-19T18:34:37.350Z,2.85
2023-02-19T18:37:06.890Z,3.03
2023-02-19T18:39:37.344Z,3.35
2023-02-19T18:42:07.487Z,2.85
2023-02-19T18:44:37.360Z,2.75
2023-02-19T18:47:11.488Z,2.75
2023-02-19T18:49:41.572Z,2.45
2023-02-19T18:52:12.768Z,2.92
2023-02-19T18:54:43.807Z,3.00
2023-02-19T18:57:13.792Z,2.95
2023-02-19T18:59:44.384Z,2.80
2023-02-19T19:02:15.783Z,3.63
2023-02-19T19:04:50.909Z,2.60
2023-02-19T19:07:21.389Z,3.17
2023-02-19T19:09:51.441Z,3.55
2023-02-19T19:12:52.906Z,2.65
2023-02-19T19:15:24.873Z,2.97
2023-02-19T19:18:14.820Z,2.28
2023-02-19T19:20:48.172Z,2.78
2023-02-19T19:23:20.766Z,2.97
2023-02-19T19:25:51.223Z,2.17
2023-02-19T19:28:21.281Z,2.70
2023-02-19T19:30:51.846Z,2.65
2023-02-19T19:33:23.061Z,2.15
2023-02-19T19:35:54.593Z,2.85
2023-02-19T19:38:24.328Z,1.95
2023-02-19T19:40:54.529Z,2.47
2023-02-19T19:43:27.568Z,2.40
2023-02-19T19:46:00.233Z,1.77
2023-02-19T19:48:31.739Z,2.22
2023-02-19T19:51:12.587Z,2.83
2023-02-19T19:53:47.736Z,2.97
2023-02-19T19:56:19.035Z,1.83
2023-02-19T19:58:50.151Z,2.53
2023-02-19T20:01:21.631Z,1.80
2023-02-19T20:03:52.790Z,2.75
2023-02-19T20:06:27.886Z,2.15
2023-02-19T20:08:58.091Z,2.00
2023-02-19T20:11:28.470Z,2.20
2023-02-19T20:13:58.317Z,2.22
2023-02-19T20:16:29.289Z,2.20
2023-02-19T20:19:02.676Z,2.00
2023-02-19T20:21:32.957Z,1.75
2023-02-19T20:24:04.421Z,2.42
2023-02-19T20:26:37.081Z,2.35
2023-02-19T20:29:11.523Z,2.15
2023-02-19T20:31:50.273Z,2.83
2023-02-19T20:34:23.930Z,1.90
2023-02-19T20:36:53.433Z,1.50
2023-02-19T20:39:29.004Z,1.63
2023-02-19T20:42:00.848Z,3.28
2023-02-19T20:44:30.986Z,2.33
2023-02-19T20:47:04.162Z,1.75
2023-02-19T20:49:35.589Z,2.25
2023-02-19T20:52:08.292Z,2.00
2023-02-19T20:54:38.754Z,1.77
2023-02-19T20:57:11.352Z,1.95
2023-02-19T20:59:41.767Z,2.10
2023-02-19T21:02:18.067Z,2.10
2023-02-19T21:04:49.215Z,1.73
2023-02-19T21:07:18.736Z,2.10
2023-02-19T21:09:47.936Z,2.08
2023-02-19T21:12:17.286Z,2.35
2023-02-19T21:14:46.521Z,1.60
2023-02-19T21:17:16.420Z,2.40
2023-02-19T21:19:46.076Z,2.15
2023-02-19T21:22:16.717Z,1.85
2023-02-19T21:24:49.615Z,2.00
2023-02-19T21:27:19.064Z,2.23
2023-02-19T21:29:49.036Z,2.00
2023-02-19T21:32:18.368Z,2.10
2023-02-19T21:34:48.023Z,1.90
2023-02-19T21:37:19.963Z,2.00
2023-02-19T21:39:49.336Z,2.25
2023-02-19T21:42:18.799Z,1.73
2023-02-19T21:44:48.610Z,2.05
2023-02-19T21:47:18.300Z,2.22
2023-02-19T21:49:47.990Z,2.58
2023-02-19T21:52:18.840Z,1.95
2023-02-19T21:54:49.263Z,2.55
2023-02-19T21:57:18.698Z,1.90
2023-02-19T21:59:47.999Z,1.92
2023-02-19T22:02:19.914Z,2.22
2023-02-19T22:04:54.652Z,2.83
2023-02-19T22:07:26.309Z,2.28
2023-02-19T22:09:55.951Z,1.88
2023-02-19T22:12:25.461Z,1.80
2023-02-19T22:14:55.088Z,2.00
2023-02-19T22:17:24.363Z,2.10
2023-02-19T22:19:53.772Z,2.42
2023-02-19T22:22:24.385Z,2.30
2023-02-19T22:24:53.979Z,2.35
2023-02-19T22:27:24.659Z,2.25
2023-02-19T22:29:54.185Z,2.72
2023-02-19T22:32:23.793Z,2.47
2023-02-19T22:34:53.496Z,2.40
2023-02-19T22:37:24.265Z,2.42
2023-02-19T22:39:54.119Z,3.00
2023-02-19T22:42:24.272Z,2.60
2023-02-19T22:44:53.763Z,2.78
2023-02-19T22:47:23.107Z,2.65
2023-02-19T22:49:52.639Z,2.28
2023-02-19T22:52:21.786Z,2.40
2023-02-19T22:54:53.715Z,2.40
2023-02-19T22:57:22.803Z,2.67
2023-02-19T22:59:52.395Z,2.30
2023-02-19T23:02:22.119Z,2.75
2023-02-19T23:04:51.714Z,2.85
2023-02-19T23:07:21.260Z,2.80
2023-02-19T23:09:53.535Z,2.40
2023-02-19T23:12:23.349Z,1.95
2023-02-19T23:14:52.538Z,2.33
2023-02-19T23:17:22.306Z,2.30
2023-02-19T23:19:51.528Z,2.40
2023-02-19T23:22:21.015Z,2.75
2023-02-19T23:24:50.382Z,2.28
2023-02-19T23:27:21.246Z,2.25
2023-02-19T23:29:51.134Z,2.22
2023-02-19T23:32:21.203Z,2.30
2023-02-19T23:34:50.955Z,1.83
2023-02-19T23:37:20.557Z,1.80
2023-02-19T23:39:50.434Z,1.88
2023-02-19T23:42:21.210Z,1.85
2023-02-19T23:44:50.807Z,1.92
2023-02-19T23:47:20.217Z,2.13
2023-02-19T23:49:49.510Z,1.50
2023-02-19T23:52:19.335Z,1.67
2023-02-19T23:54:49.091Z,1.95
2023-02-19T23:57:18.679Z,1.73
2023-02-19T23:59:50.003Z,1.70
